PRIVATE WETTERSTATION BILLIGHEIM-ALLFELD                       ZURCK
Wetterdaten: Freitag, 07.11.2014
Datum Zeit Temp. A. Temp. A. min Temp. A. max Feuchte A. Luftdruck Regen Wind Richtung Richtung Sonnenschein ET Solar Taupunkt Windchill Windben Empfang
07.11.2014 00:00 0,3 C 0,3 C 0,4 C 91 % 1012,8 hPa 0,0 l/m 1,6 km/h (1 Bft) N 360 0 min 0,000 mm 0 W/m -1,0 C 0,3 C 3,2 km/h (1 Bft) 98 %
07.11.2014 00:10 0,2 C 0,2 C 0,3 C 91 % 1012,7 hPa 0,0 l/m 0,0 km/h (0 Bft) N 360 0 min 0,000 mm 0 W/m -1,1 C 0,2 C 1,6 km/h (1 Bft) 87 %
07.11.2014 00:20 0,1 C 0,1 C 0,2 C 91 % 1012,6 hPa 0,0 l/m 0,0 km/h (0 Bft) N 360 0 min 0,000 mm 0 W/m -1,2 C 0,1 C 3,2 km/h (1 Bft) 98 %
07.11.2014 00:30 0,0 C -0,1 C 0,1 C 91 % 1012,6 hPa 0,0 l/m 0,0 km/h (0 Bft) N 0 0 min 0,000 mm 0 W/m -1,3 C 0,0 C 0,0 km/h (0 Bft) 97 %
07.11.2014 00:40 -0,1 C -0,1 C 0,0 C 91 % 1012,6 hPa 0,0 l/m 0,0 km/h (0 Bft) N 0 0 min 0,000 mm 0 W/m -1,4 C -0,1 C 0,0 km/h (0 Bft) 97 %
07.11.2014 00:50 -0,1 C -0,1 C -0,1 C 91 % 1012,7 hPa 0,0 l/m 0,0 km/h (0 Bft) N 360 0 min 0,000 mm 0 W/m -1,4 C -0,1 C 3,2 km/h (1 Bft) 98 %
07.11.2014 01:00 0,0 C -0,1 C 0,0 C 91 % 1012,7 hPa 0,0 l/m 0,0 km/h (0 Bft) N 0 0 min 0,000 mm 0 W/m -1,3 C 0,0 C 0,0 km/h (0 Bft) 97 %
07.11.2014 01:10 -0,1 C -0,1 C 0,0 C 91 % 1012,7 hPa 0,0 l/m 0,0 km/h (0 Bft) N 360 0 min 0,000 mm 0 W/m -1,4 C -0,1 C 3,2 km/h (1 Bft) 98 %
07.11.2014 01:20 -0,1 C -0,1 C -0,1 C 91 % 1013,0 hPa 0,0 l/m 0,0 km/h (0 Bft) N 360 0 min 0,000 mm 0 W/m -1,4 C -0,1 C 4,8 km/h (1 Bft) 97 %
07.11.2014 01:30 -0,1 C -0,1 C -0,1 C 91 % 1012,9 hPa 0,0 l/m 0,0 km/h (0 Bft) N-NO 22 0 min 0,000 mm 0 W/m -1,4 C -0,1 C 4,8 km/h (1 Bft) 98 %
07.11.2014 01:40 -0,1 C -0,1 C -0,1 C 91 % 1012,8 hPa 0,0 l/m 0,0 km/h (0 Bft) N-NO 22 0 min 0,000 mm 0 W/m -1,4 C -0,1 C 3,2 km/h (1 Bft) 97 %
07.11.2014 01:50 -0,1 C -0,1 C -0,1 C 91 % 1012,8 hPa 0,0 l/m 0,0 km/h (0 Bft) N-NO 22 0 min 0,000 mm 0 W/m -1,4 C -0,1 C 4,8 km/h (1 Bft) 97 %
07.11.2014 02:00 -0,1 C -0,1 C -0,1 C 91 % 1012,8 hPa 0,0 l/m 1,6 km/h (1 Bft) N-NW 337 0 min 0,000 mm 0 W/m -1,4 C -0,1 C 4,8 km/h (1 Bft) 98 %
07.11.2014 02:10 0,0 C -0,1 C 0,0 C 91 % 1012,7 hPa 0,0 l/m 0,0 km/h (0 Bft) N 0 0 min 0,000 mm 0 W/m -1,3 C 0,0 C 0,0 km/h (0 Bft) 97 %
07.11.2014 02:20 -0,1 C -0,1 C 0,0 C 91 % 1012,7 hPa 0,0 l/m 0,0 km/h (0 Bft) N 360 0 min 0,000 mm 0 W/m -1,4 C -0,1 C 3,2 km/h (1 Bft) 98 %
07.11.2014 02:30 -0,1 C -0,1 C 0,0 C 91 % 1012,6 hPa 0,0 l/m 0,0 km/h (0 Bft) N 360 0 min 0,000 mm 0 W/m -1,4 C -0,1 C 3,2 km/h (1 Bft) 97 %
07.11.2014 02:40 -0,1 C -0,1 C 0,0 C 91 % 1012,3 hPa 0,0 l/m 0,0 km/h (0 Bft) N 360 0 min 0,000 mm 0 W/m -1,4 C -0,1 C 1,6 km/h (1 Bft) 97 %
07.11.2014 02:50 -0,1 C -0,1 C 0,0 C 91 % 1012,3 hPa 0,0 l/m 0,0 km/h (0 Bft) N 360 0 min 0,000 mm 0 W/m -1,4 C -0,1 C 1,6 km/h (1 Bft) 97 %
07.11.2014 03:00 -0,1 C -0,1 C -0,1 C 91 % 1012,0 hPa 0,0 l/m 0,0 km/h (0 Bft) N 360 0 min 0,000 mm 0 W/m -1,4 C -0,1 C 1,6 km/h (1 Bft) 98 %
07.11.2014 03:10 -0,2 C -0,2 C -0,1 C 91 % 1012,0 hPa 0,0 l/m 0,0 km/h (0 Bft) N 0 0 min 0,000 mm 0 W/m -1,5 C -0,2 C 0,0 km/h (0 Bft) 98 %
07.11.2014 03:20 -0,2 C -0,2 C -0,2 C 91 % 1011,6 hPa 0,0 l/m 1,6 km/h (1 Bft) N 360 0 min 0,000 mm 0 W/m -1,5 C -0,2 C 3,2 km/h (1 Bft) 97 %
07.11.2014 03:30 -0,2 C -0,2 C -0,2 C 91 % 1011,7 hPa 0,0 l/m 0,0 km/h (0 Bft) N-NW 337 0 min 0,000 mm 0 W/m -1,5 C -0,2 C 3,2 km/h (1 Bft) 98 %
07.11.2014 03:40 -0,2 C -0,2 C -0,2 C 91 % 1011,7 hPa 0,0 l/m 0,0 km/h (0 Bft) N-NW 337 0 min 0,000 mm 0 W/m -1,5 C -0,2 C 3,2 km/h (1 Bft) 97 %
07.11.2014 03:50 -0,2 C -0,3 C -0,2 C 91 % 1011,8 hPa 0,0 l/m 0,0 km/h (0 Bft) N 0 0 min 0,000 mm 0 W/m -1,5 C -0,2 C 0,0 km/h (0 Bft) 98 %
07.11.2014 04:00 -0,2 C -0,3 C -0,2 C 91 % 1011,8 hPa 0,0 l/m 1,6 km/h (1 Bft) O-SO 112 0 min 0,000 mm 0 W/m -1,5 C -0,2 C 4,8 km/h (1 Bft) 97 %
07.11.2014 04:10 -0,1 C -0,2 C -0,1 C 91 % 1012,0 hPa 0,0 l/m 0,0 km/h (0 Bft) N 0 0 min 0,000 mm 0 W/m -1,4 C -0,1 C 0,0 km/h (0 Bft) 97 %
07.11.2014 04:20 0,1 C -0,1 C 0,1 C 91 % 1011,8 hPa 0,0 l/m 0,0 km/h (0 Bft) N 0 0 min 0,000 mm 0 W/m -1,2 C 0,1 C 0,0 km/h (0 Bft) 98 %
07.11.2014 04:30 0,2 C 0,1 C 0,2 C 91 % 1011,8 hPa 0,0 l/m 0,0 km/h (0 Bft) N 0 0 min 0,000 mm 0 W/m -1,1 C 0,2 C 0,0 km/h (0 Bft) 97 %
07.11.2014 04:40 0,2 C 0,1 C 0,2 C 91 % 1011,6 hPa 0,0 l/m 0,0 km/h (0 Bft) N 0 0 min 0,000 mm 0 W/m -1,1 C 0,2 C 0,0 km/h (0 Bft) 98 %
07.11.2014 04:50 0,2 C 0,2 C 0,2 C 91 % 1011,5 hPa 0,0 l/m 0,0 km/h (0 Bft) O-SO 112 0 min 0,000 mm 0 W/m -1,1 C 0,2 C 1,6 km/h (1 Bft) 97 %
07.11.2014 05:00 0,3 C 0,2 C 0,3 C 91 % 1011,5 hPa 0,0 l/m 0,0 km/h (0 Bft) O-SO 112 0 min 0,000 mm 0 W/m -1,0 C 0,3 C 1,6 km/h (1 Bft) 97 %
07.11.2014 05:10 0,3 C 0,3 C 0,3 C 91 % 1011,5 hPa 0,0 l/m 0,0 km/h (0 Bft) O-SO 112 0 min 0,000 mm 0 W/m -1,0 C 0,3 C 1,6 km/h (1 Bft) 98 %
07.11.2014 05:20 0,3 C 0,3 C 0,3 C 91 % 1011,4 hPa 0,0 l/m 0,0 km/h (0 Bft) O-SO 112 0 min 0,000 mm 0 W/m -1,0 C 0,3 C 1,6 km/h (1 Bft) 98 %
07.11.2014 05:30 0,3 C 0,3 C 0,3 C 91 % 1011,3 hPa 0,0 l/m 0,0 km/h (0 Bft) N 0 0 min 0,000 mm 0 W/m -1,0 C 0,3 C 0,0 km/h (0 Bft) 98 %
07.11.2014 05:40 0,4 C 0,3 C 0,4 C 91 % 1011,1 hPa 0,0 l/m 0,0 km/h (0 Bft) N 0 0 min 0,000 mm 0 W/m -0,9 C 0,4 C 0,0 km/h (0 Bft) 98 %
07.11.2014 05:50 0,4 C 0,4 C 0,4 C 91 % 1011,1 hPa 0,0 l/m 0,0 km/h (0 Bft) O-SO 112 0 min 0,000 mm 0 W/m -0,9 C 0,4 C 1,6 km/h (1 Bft) 98 %
07.11.2014 06:00 0,4 C 0,4 C 0,4 C 91 % 1010,8 hPa 0,0 l/m 0,0 km/h (0 Bft) N 0 0 min 0,000 mm 0 W/m -0,9 C 0,4 C 0,0 km/h (0 Bft) 96 %
07.11.2014 06:10 0,4 C 0,4 C 0,4 C 91 % 1010,7 hPa 0,0 l/m 0,0 km/h (0 Bft) O-SO 112 0 min 0,000 mm 0 W/m -0,9 C 0,4 C 1,6 km/h (1 Bft) 97 %
07.11.2014 06:20 0,3 C 0,3 C 0,4 C 91 % 1010,8 hPa 0,0 l/m 0,0 km/h (0 Bft) O-SO 112 0 min 0,000 mm 0 W/m -1,0 C 0,3 C 1,6 km/h (1 Bft) 98 %
07.11.2014 06:30 0,2 C 0,2 C 0,3 C 91 % 1010,8 hPa 0,0 l/m 0,0 km/h (0 Bft) O 90 0 min 0,000 mm 0 W/m -1,1 C 0,2 C 1,6 km/h (1 Bft) 98 %
07.11.2014 06:40 0,1 C 0,1 C 0,2 C 91 % 1010,7 hPa 0,0 l/m 0,0 km/h (0 Bft) O 90 0 min 0,000 mm 0 W/m -1,2 C 0,1 C 3,2 km/h (1 Bft) 97 %
07.11.2014 06:50 0,1 C 0,1 C 0,1 C 91 % 1010,6 hPa 0,0 l/m 0,0 km/h (0 Bft) O-NO 67 0 min 0,000 mm 0 W/m -1,2 C 0,1 C 1,6 km/h (1 Bft) 98 %
07.11.2014 07:00 0,1 C 0,1 C 0,1 C 91 % 1010,6 hPa 0,0 l/m 0,0 km/h (0 Bft) N-NO 22 0 min 0,000 mm 0 W/m -1,2 C 0,1 C 3,2 km/h (1 Bft) 97 %
07.11.2014 07:10 0,1 C 0,0 C 0,1 C 91 % 1010,6 hPa 0,0 l/m 0,0 km/h (0 Bft) N-NO 22 0 min 0,000 mm 0 W/m -1,2 C 0,1 C 3,2 km/h (1 Bft) 97 %
07.11.2014 07:20 0,1 C 0,1 C 0,1 C 91 % 1010,4 hPa 0,0 l/m 0,0 km/h (0 Bft) N-NO 22 0 min 0,000 mm 0 W/m -1,2 C 0,1 C 1,6 km/h (1 Bft) 98 %
07.11.2014 07:30 0,2 C 0,1 C 0,2 C 91 % 1010,4 hPa 0,0 l/m 0,0 km/h (0 Bft) N 360 0 min 0,000 mm 0 W/m -1,1 C 0,2 C 3,2 km/h (1 Bft) 99 %
07.11.2014 07:40 0,2 C 0,2 C 0,2 C 91 % 1010,2 hPa 0,0 l/m 0,0 km/h (0 Bft) N 360 0 min 0,000 mm 5 W/m -1,1 C 0,2 C 1,6 km/h (1 Bft) 99 %
07.11.2014 07:50 0,3 C 0,2 C 0,3 C 91 % 1010,3 hPa 0,0 l/m 0,0 km/h (0 Bft) N 360 0 min 0,000 mm 16 W/m -1,0 C 0,3 C 3,2 km/h (1 Bft) 99 %
07.11.2014 08:00 0,4 C 0,3 C 0,4 C 91 % 1010,4 hPa 0,0 l/m 0,0 km/h (0 Bft) N 0 0 min 0,000 mm 19 W/m -0,9 C 0,4 C 0,0 km/h (0 Bft) 100 %
07.11.2014 08:10 0,4 C 0,4 C 0,4 C 91 % 1010,5 hPa 0,0 l/m 0,0 km/h (0 Bft) N 0 0 min 0,000 mm 35 W/m -0,9 C 0,4 C 0,0 km/h (0 Bft) 100 %
07.11.2014 08:20 0,6 C 0,4 C 0,6 C 91 % 1010,6 hPa 0,0 l/m 0,0 km/h (0 Bft) N 0 0 min 0,000 mm 47 W/m -0,7 C 0,6 C 0,0 km/h (0 Bft) 99 %
07.11.2014 08:30 0,8 C 0,6 C 0,8 C 91 % 1010,5 hPa 0,0 l/m 0,0 km/h (0 Bft) N 360 0 min 0,000 mm 81 W/m -0,5 C 0,8 C 1,6 km/h (1 Bft) 100 %
07.11.2014 08:40 0,9 C 0,8 C 0,9 C 91 % 1010,3 hPa 0,0 l/m 0,0 km/h (0 Bft) N 360 0 min 0,000 mm 83 W/m -0,4 C 0,9 C 3,2 km/h (1 Bft) 100 %
07.11.2014 08:50 1,2 C 1,0 C 1,2 C 91 % 1009,9 hPa 0,0 l/m 1,6 km/h (1 Bft) N 360 0 min 0,000 mm 100 W/m -0,1 C 1,2 C 3,2 km/h (1 Bft) 100 %
07.11.2014 09:00 1,6 C 1,2 C 1,6 C 91 % 1010,0 hPa 0,0 l/m 0,0 km/h (0 Bft) N 360 0 min 0,025 mm 142 W/m 0,3 C 1,6 C 1,6 km/h (1 Bft) 100 %
07.11.2014 09:10 2,1 C 1,6 C 2,1 C 91 % 1010,1 hPa 0,0 l/m 0,0 km/h (0 Bft) W-NW 292 10 min 0,000 mm 176 W/m 0,8 C 2,1 C 3,2 km/h (1 Bft) 99 %
07.11.2014 09:20 2,3 C 2,1 C 2,3 C 91 % 1010,0 hPa 0,0 l/m 0,0 km/h (0 Bft) N-NW 337 0 min 0,000 mm 148 W/m 1,0 C 2,3 C 4,8 km/h (1 Bft) 100 %
07.11.2014 09:30 2,3 C 2,3 C 2,4 C 91 % 1010,0 hPa 0,0 l/m 0,0 km/h (0 Bft) N-NW 337 0 min 0,000 mm 151 W/m 1,0 C 2,3 C 4,8 km/h (1 Bft) 100 %
07.11.2014 09:40 2,6 C 2,3 C 2,6 C 91 % 1009,8 hPa 0,0 l/m 0,0 km/h (0 Bft) N-NW 337 0 min 0,000 mm 148 W/m 1,3 C 2,6 C 3,2 km/h (1 Bft) 100 %
07.11.2014 09:50 2,8 C 2,6 C 2,8 C 92 % 1009,7 hPa 0,0 l/m 0,0 km/h (0 Bft) N-NW 337 10 min 0,000 mm 192 W/m 1,6 C 2,8 C 4,8 km/h (1 Bft) 100 %
07.11.2014 10:00 3,1 C 2,8 C 3,1 C 91 % 1009,7 hPa 0,0 l/m 0,0 km/h (0 Bft) N-NW 337 0 min 0,051 mm 149 W/m 1,8 C 3,1 C 4,8 km/h (1 Bft) 100 %
07.11.2014 10:10 3,3 C 3,1 C 3,3 C 91 % 1009,8 hPa 0,0 l/m 0,0 km/h (0 Bft) N-NW 337 0 min 0,000 mm 135 W/m 2,0 C 3,3 C 3,2 km/h (1 Bft) 99 %
07.11.2014 10:20 3,5 C 3,3 C 3,5 C 92 % 1009,7 hPa 0,0 l/m 0,0 km/h (0 Bft) N-NW 337 0 min 0,000 mm 97 W/m 2,3 C 3,5 C 3,2 km/h (1 Bft) 100 %
07.11.2014 10:30 3,7 C 3,5 C 3,7 C 91 % 1009,5 hPa 0,0 l/m 0,0 km/h (0 Bft) N 0 0 min 0,000 mm 107 W/m 2,4 C 3,7 C 0,0 km/h (0 Bft) 99 %
07.11.2014 10:40 3,9 C 3,7 C 3,9 C 91 % 1009,2 hPa 0,0 l/m 0,0 km/h (0 Bft) N-NW 337 0 min 0,000 mm 120 W/m 2,6 C 3,9 C 3,2 km/h (1 Bft) 100 %
07.11.2014 10:50 4,2 C 3,9 C 4,2 C 91 % 1009,1 hPa 0,0 l/m 0,0 km/h (0 Bft) N-NW 337 0 min 0,000 mm 111 W/m 2,9 C 4,2 C 3,2 km/h (1 Bft) 100 %
07.11.2014 11:00 4,4 C 4,2 C 4,4 C 92 % 1009,3 hPa 0,0 l/m 0,0 km/h (0 Bft) N-NW 337 0 min 0,051 mm 107 W/m 3,2 C 4,4 C 3,2 km/h (1 Bft) 100 %
07.11.2014 11:10 4,6 C 4,4 C 4,6 C 92 % 1009,5 hPa 0,0 l/m 0,0 km/h (0 Bft) N-NW 337 0 min 0,000 mm 86 W/m 3,4 C 4,6 C 3,2 km/h (1 Bft) 100 %
07.11.2014 11:20 4,7 C 4,6 C 4,7 C 91 % 1009,3 hPa 0,0 l/m 0,0 km/h (0 Bft) N 0 0 min 0,000 mm 84 W/m 3,4 C 4,7 C 0,0 km/h (0 Bft) 100 %
07.11.2014 11:30 4,8 C 4,7 C 4,8 C 91 % 1009,3 hPa 0,0 l/m 0,0 km/h (0 Bft) N-NW 337 0 min 0,000 mm 84 W/m 3,5 C 4,8 C 1,6 km/h (1 Bft) 100 %
07.11.2014 11:40 5,0 C 4,8 C 5,0 C 91 % 1009,2 hPa 0,0 l/m 0,0 km/h (0 Bft) N 0 0 min 0,000 mm 81 W/m 3,7 C 5,0 C 0,0 km/h (0 Bft) 100 %
07.11.2014 11:50 5,1 C 4,9 C 5,1 C 91 % 1009,0 hPa 0,0 l/m 0,0 km/h (0 Bft) N-NW 337 0 min 0,000 mm 100 W/m 3,8 C 5,1 C 4,8 km/h (1 Bft) 100 %
07.11.2014 12:00 5,1 C 5,0 C 5,1 C 91 % 1008,9 hPa 0,0 l/m 1,6 km/h (1 Bft) SO 135 0 min 0,025 mm 128 W/m 3,8 C 5,1 C 6,4 km/h (2 Bft) 100 %
07.11.2014 12:10 5,3 C 5,1 C 5,3 C 91 % 1008,8 hPa 0,0 l/m 3,2 km/h (1 Bft) S 180 10 min 0,000 mm 160 W/m 4,0 C 5,3 C 9,7 km/h (2 Bft) 100 %
07.11.2014 12:20 5,6 C 5,3 C 5,6 C 91 % 1008,6 hPa 0,0 l/m 3,2 km/h (1 Bft) S 180 10 min 0,000 mm 172 W/m 4,2 C 5,6 C 11,3 km/h (2 Bft) 100 %
07.11.2014 12:30 5,8 C 5,6 C 5,8 C 91 % 1008,6 hPa 0,0 l/m 4,8 km/h (1 Bft) S-SO 157 10 min 0,000 mm 204 W/m 4,4 C 5,8 C 14,5 km/h (3 Bft) 100 %
07.11.2014 12:40 5,9 C 5,8 C 5,9 C 91 % 1009,0 hPa 0,0 l/m 6,4 km/h (2 Bft) S-SW 202 10 min 0,000 mm 162 W/m 4,5 C 5,9 C 14,5 km/h (3 Bft) 100 %
07.11.2014 12:50 6,2 C 5,9 C 6,2 C 92 % 1008,7 hPa 0,0 l/m 3,2 km/h (1 Bft) S-SW 202 10 min 0,000 mm 425 W/m 5,0 C 6,2 C 11,3 km/h (2 Bft) 100 %
07.11.2014 13:00 6,8 C 6,2 C 6,8 C 92 % 1008,6 hPa 0,0 l/m 3,2 km/h (1 Bft) S-SO 157 10 min 0,076 mm 425 W/m 5,6 C 6,8 C 9,7 km/h (2 Bft) 100 %
07.11.2014 13:10 6,8 C 6,8 C 7,0 C 90 % 1008,6 hPa 0,0 l/m 4,8 km/h (1 Bft) S-SW 202 10 min 0,000 mm 239 W/m 5,3 C 6,8 C 11,3 km/h (2 Bft) 100 %
07.11.2014 13:20 6,9 C 6,8 C 6,9 C 89 % 1008,5 hPa 0,0 l/m 4,8 km/h (1 Bft) SO 135 10 min 0,000 mm 244 W/m 5,2 C 6,9 C 12,9 km/h (3 Bft) 99 %
07.11.2014 13:30 7,4 C 6,9 C 7,4 C 90 % 1008,4 hPa 0,0 l/m 3,2 km/h (1 Bft) S-SW 202 10 min 0,000 mm 369 W/m 5,9 C 7,4 C 9,7 km/h (2 Bft) 100 %
07.11.2014 13:40 7,9 C 7,4 C 7,9 C 88 % 1008,4 hPa 0,0 l/m 1,6 km/h (1 Bft) S-SW 202 10 min 0,000 mm 371 W/m 6,0 C 7,9 C 9,7 km/h (2 Bft) 100 %
07.11.2014 13:50 8,3 C 7,9 C 8,3 C 87 % 1008,5 hPa 0,0 l/m 3,2 km/h (1 Bft) S-SW 202 10 min 0,000 mm 346 W/m 6,3 C 8,3 C 11,3 km/h (2 Bft) 100 %
07.11.2014 14:00 8,3 C 8,3 C 8,4 C 85 % 1008,3 hPa 0,0 l/m 3,2 km/h (1 Bft) O-SO 112 10 min 0,102 mm 330 W/m 5,9 C 8,3 C 8,0 km/h (2 Bft) 100 %
07.11.2014 14:10 8,1 C 8,1 C 8,3 C 85 % 1008,3 hPa 0,0 l/m 1,6 km/h (1 Bft) S 180 10 min 0,000 mm 206 W/m 5,7 C 8,1 C 8,0 km/h (2 Bft) 100 %
07.11.2014 14:20 7,9 C 7,9 C 8,1 C 85 % 1008,3 hPa 0,0 l/m 1,6 km/h (1 Bft) S-SO 157 0 min 0,000 mm 146 W/m 5,5 C 7,9 C 9,7 km/h (2 Bft) 100 %
07.11.2014 14:30 7,9 C 7,9 C 7,9 C 85 % 1008,1 hPa 0,0 l/m 0,0 km/h (0 Bft) O-SO 112 0 min 0,000 mm 146 W/m 5,5 C 7,9 C 6,4 km/h (2 Bft) 100 %
07.11.2014 14:40 7,9 C 7,9 C 7,9 C 85 % 1008,0 hPa 0,0 l/m 0,0 km/h (0 Bft) SO 135 10 min 0,000 mm 163 W/m 5,5 C 7,9 C 4,8 km/h (1 Bft) 100 %
07.11.2014 14:50 7,9 C 7,9 C 8,0 C 86 % 1008,0 hPa 0,0 l/m 0,0 km/h (0 Bft) S-SO 157 0 min 0,000 mm 113 W/m 5,7 C 7,9 C 4,8 km/h (1 Bft) 100 %
07.11.2014 15:00 8,0 C 7,9 C 8,0 C 84 % 1008,1 hPa 0,0 l/m 0,0 km/h (0 Bft) S-SO 157 0 min 0,051 mm 98 W/m 5,5 C 8,0 C 3,2 km/h (1 Bft) 100 %
07.11.2014 15:10 8,3 C 8,0 C 8,3 C 85 % 1008,0 hPa 0,0 l/m 0,0 km/h (0 Bft) SO 135 0 min 0,000 mm 102 W/m 5,9 C 8,3 C 3,2 km/h (1 Bft) 100 %
07.11.2014 15:20 8,6 C 8,3 C 8,6 C 83 % 1008,3 hPa 0,0 l/m 1,6 km/h (1 Bft) S 180 0 min 0,000 mm 77 W/m 5,9 C 8,6 C 8,0 km/h (2 Bft) 100 %
07.11.2014 15:30 8,4 C 8,4 C 8,6 C 83 % 1008,4 hPa 0,0 l/m 1,6 km/h (1 Bft) SO 135 0 min 0,000 mm 44 W/m 5,7 C 8,4 C 6,4 km/h (2 Bft) 100 %
07.11.2014 15:40 8,3 C 8,3 C 8,4 C 83 % 1008,4 hPa 0,0 l/m 0,0 km/h (0 Bft) N 0 0 min 0,000 mm 37 W/m 5,6 C 8,3 C 0,0 km/h (0 Bft) 100 %
07.11.2014 15:50 8,2 C 8,2 C 8,3 C 84 % 1008,5 hPa 0,0 l/m 0,0 km/h (0 Bft) N 0 0 min 0,000 mm 37 W/m 5,7 C 8,2 C 0,0 km/h (0 Bft) 100 %
07.11.2014 16:00 8,1 C 8,1 C 8,2 C 86 % 1008,3 hPa 0,0 l/m 0,0 km/h (0 Bft) O-SO 112 0 min 0,025 mm 35 W/m 5,9 C 8,1 C 3,2 km/h (1 Bft) 90 %
07.11.2014 16:10 7,8 C 7,8 C 8,1 C 86 % 1008,5 hPa 0,0 l/m 0,0 km/h (0 Bft) N 0 0 min 0,000 mm 32 W/m 5,6 C 7,8 C 0,0 km/h (0 Bft) 100 %
07.11.2014 16:20 7,6 C 7,6 C 8,1 C 87 % 1008,5 hPa 0,0 l/m 0,0 km/h (0 Bft) O-SO 102 0 min 0,000 mm 16 W/m 5,6 C 7,6 C 0,0 km/h (0 Bft) 97 %
07.11.2014 16:30 7,6 C 7,6 C 7,6 C 89 % 1008,5 hPa 0,0 l/m 0,4 km/h (0 Bft) O-SO 102 0 min 0,000 mm 12 W/m 5,9 C 7,6 C 1,6 km/h (1 Bft) 97 %
07.11.2014 16:40 7,5 C 7,5 C 7,6 C 90 % 1008,5 hPa 0,0 l/m 0,0 km/h (0 Bft) O-SO 102 0 min 0,000 mm 7 W/m 6,0 C 7,5 C 0,0 km/h (0 Bft) 97 %
07.11.2014 16:50 7,4 C 7,4 C 7,5 C 90 % 1008,7 hPa 0,0 l/m 0,0 km/h (0 Bft) O-SO 102 0 min 0,000 mm 0 W/m 5,9 C 7,4 C 0,0 km/h (0 Bft) 97 %
07.11.2014 17:00 7,3 C 7,3 C 7,4 C 89 % 1008,6 hPa 0,0 l/m 0,0 km/h (0 Bft) O-SO 102 0 min 0,000 mm 0 W/m 5,6 C 7,3 C 1,6 km/h (1 Bft) 97 %
07.11.2014 17:10 7,3 C 7,3 C 7,3 C 90 % 1008,9 hPa 0,0 l/m 0,2 km/h (0 Bft) O-SO 102 0 min 0,000 mm 0 W/m 5,8 C 7,3 C 1,6 km/h (1 Bft) 89 %
07.11.2014 17:20 7,3 C 7,3 C 7,3 C 91 % 1008,9 hPa 0,0 l/m 0,0 km/h (0 Bft) O-SO 102 0 min 0,000 mm 0 W/m 5,9 C 7,3 C 0,0 km/h (0 Bft) 98 %
07.11.2014 17:30 7,2 C 7,2 C 7,3 C 91 % 1009,2 hPa 0,0 l/m 0,5 km/h (0 Bft) N-NW 343 0 min 0,000 mm 0 W/m 5,8 C 7,2 C 3,2 km/h (1 Bft) 97 %
07.11.2014 17:40 7,2 C 7,2 C 7,2 C 91 % 1009,4 hPa 0,0 l/m 0,1 km/h (0 Bft) N-NW 343 0 min 0,000 mm 0 W/m 5,8 C 7,2 C 1,6 km/h (1 Bft) 97 %
07.11.2014 17:50 7,1 C 7,1 C 7,2 C 91 % 1009,6 hPa 0,0 l/m 0,0 km/h (0 Bft) N-NW 343 0 min 0,000 mm 0 W/m 5,7 C 7,1 C 0,0 km/h (0 Bft) 97 %
07.11.2014 18:00 7,1 C 7,1 C 7,1 C 91 % 1009,8 hPa 0,0 l/m 0,0 km/h (0 Bft) N-NW 343 0 min 0,000 mm 0 W/m 5,7 C 7,1 C 0,0 km/h (0 Bft) 98 %
07.11.2014 18:10 7,0 C 7,0 C 7,1 C 91 % 1009,9 hPa 0,0 l/m 0,0 km/h (0 Bft) N-NW 343 0 min 0,000 mm 0 W/m 5,6 C 7,0 C 0,0 km/h (0 Bft) 97 %
07.11.2014 18:20 7,0 C 7,0 C 7,0 C 91 % 1010,1 hPa 0,0 l/m 0,0 km/h (0 Bft) N-NW 343 0 min 0,000 mm 0 W/m 5,6 C 7,0 C 0,0 km/h (0 Bft) 98 %
07.11.2014 18:30 7,0 C 7,0 C 7,1 C 91 % 1010,4 hPa 0,0 l/m 0,1 km/h (0 Bft) N-NW 343 0 min 0,000 mm 0 W/m 5,6 C 7,0 C 1,6 km/h (1 Bft) 98 %
07.11.2014 18:40 7,1 C 7,0 C 7,1 C 91 % 1010,4 hPa 0,0 l/m 1,6 km/h (1 Bft) NO 49 0 min 0,000 mm 0 W/m 5,7 C 7,1 C 4,8 km/h (1 Bft) 97 %
07.11.2014 18:50 7,1 C 7,1 C 7,1 C 91 % 1010,7 hPa 0,0 l/m 0,3 km/h (0 Bft) S-SO 163 0 min 0,000 mm 0 W/m 5,7 C 7,1 C 4,8 km/h (1 Bft) 98 %
07.11.2014 19:00 7,2 C 7,1 C 7,2 C 91 % 1010,9 hPa 0,0 l/m 0,0 km/h (0 Bft) S-SO 163 0 min 0,000 mm 0 W/m 5,8 C 7,2 C 1,6 km/h (1 Bft) 97 %
07.11.2014 19:10 7,3 C 7,2 C 7,3 C 91 % 1011,0 hPa 0,0 l/m 1,1 km/h (1 Bft) S-SO 163 0 min 0,000 mm 0 W/m 5,9 C 7,3 C 4,8 km/h (1 Bft) 97 %
07.11.2014 19:20 7,3 C 7,3 C 7,3 C 91 % 1011,2 hPa 0,0 l/m 0,6 km/h (0 Bft) S-SW 205 0 min 0,000 mm 0 W/m 5,9 C 7,3 C 3,2 km/h (1 Bft) 97 %
07.11.2014 19:30 7,4 C 7,3 C 7,4 C 90 % 1011,3 hPa 0,0 l/m 1,4 km/h (1 Bft) SW 218 0 min 0,000 mm 0 W/m 5,9 C 7,4 C 6,4 km/h (2 Bft) 98 %
07.11.2014 19:40 7,5 C 7,4 C 7,5 C 90 % 1011,4 hPa 0,0 l/m 3,1 km/h (1 Bft) S-SW 209 0 min 0,000 mm 0 W/m 6,0 C 7,5 C 8,0 km/h (2 Bft) 96 %
07.11.2014 19:50 7,6 C 7,5 C 7,6 C 90 % 1011,7 hPa 0,0 l/m 2,6 km/h (1 Bft) S-SW 197 0 min 0,000 mm 0 W/m 6,1 C 7,6 C 8,0 km/h (2 Bft) 97 %
07.11.2014 20:00 7,6 C 7,6 C 7,6 C 90 % 1011,7 hPa 0,0 l/m 2,3 km/h (1 Bft) SW 234 0 min 0,000 mm 0 W/m 6,1 C 7,6 C 8,0 km/h (2 Bft) 98 %
07.11.2014 20:10 7,6 C 7,6 C 7,6 C 90 % 1011,8 hPa 0,0 l/m 2,3 km/h (1 Bft) SW 226 0 min 0,000 mm 0 W/m 6,1 C 7,6 C 9,7 km/h (2 Bft) 97 %
07.11.2014 20:20 7,6 C 7,6 C 7,6 C 90 % 1011,9 hPa 0,0 l/m 2,7 km/h (1 Bft) SW 224 0 min 0,000 mm 0 W/m 6,1 C 7,6 C 9,7 km/h (2 Bft) 98 %
07.11.2014 20:30 7,7 C 7,6 C 7,7 C 90 % 1011,8 hPa 0,0 l/m 3,5 km/h (1 Bft) S-SW 192 0 min 0,000 mm 0 W/m 6,2 C 7,7 C 11,3 km/h (2 Bft) 97 %
07.11.2014 20:40 7,7 C 7,7 C 7,7 C 90 % 1011,9 hPa 0,0 l/m 4,9 km/h (1 Bft) S-SW 204 0 min 0,000 mm 0 W/m 6,2 C 7,7 C 9,7 km/h (2 Bft) 88 %
07.11.2014 20:50 7,7 C 7,7 C 7,7 C 90 % 1012,0 hPa 0,0 l/m 2,4 km/h (1 Bft) S-SW 193 0 min 0,000 mm 0 W/m 6,2 C 7,7 C 8,0 km/h (2 Bft) 98 %
07.11.2014 21:00 7,5 C 7,5 C 7,7 C 90 % 1012,1 hPa 0,0 l/m 3,7 km/h (1 Bft) S-SW 203 0 min 0,000 mm 0 W/m 6,0 C 7,5 C 9,7 km/h (2 Bft) 97 %
07.11.2014 21:10 7,4 C 7,4 C 7,5 C 90 % 1012,4 hPa 0,0 l/m 4,8 km/h (1 Bft) S-SW 202 0 min 0,000 mm 0 W/m 5,9 C 7,4 C 9,7 km/h (2 Bft) 100 %
07.11.2014 21:20 7,4 C 7,4 C 7,4 C 91 % 1012,4 hPa 0,0 l/m 3,2 km/h (1 Bft) S-SW 202 0 min 0,000 mm 0 W/m 6,0 C 7,4 C 9,7 km/h (2 Bft) 100 %
07.11.2014 21:30 7,3 C 7,3 C 7,4 C 91 % 1012,4 hPa 0,0 l/m 0,0 km/h (0 Bft) S-SW 202 0 min 0,000 mm 0 W/m 5,9 C 7,3 C 1,6 km/h (1 Bft) 100 %
07.11.2014 21:40 7,1 C 7,1 C 7,3 C 91 % 1012,4 hPa 0,0 l/m 1,6 km/h (1 Bft) S-SW 202 0 min 0,000 mm 0 W/m 5,7 C 7,1 C 4,8 km/h (1 Bft) 100 %
07.11.2014 21:50 7,0 C 7,0 C 7,1 C 91 % 1012,5 hPa 0,0 l/m 1,6 km/h (1 Bft) S-SO 157 0 min 0,000 mm 0 W/m 5,6 C 7,0 C 4,8 km/h (1 Bft) 100 %
07.11.2014 22:00 7,1 C 7,0 C 7,1 C 91 % 1012,4 hPa 0,0 l/m 0,0 km/h (0 Bft) S-SO 157 0 min 0,000 mm 0 W/m 5,7 C 7,1 C 4,8 km/h (1 Bft) 100 %
07.11.2014 22:10 6,9 C 6,9 C 7,1 C 91 % 1012,4 hPa 0,0 l/m 1,6 km/h (1 Bft) S-SO 157 0 min 0,000 mm 0 W/m 5,5 C 6,9 C 4,8 km/h (1 Bft) 100 %
07.11.2014 22:20 6,8 C 6,8 C 6,9 C 91 % 1012,3 hPa 0,0 l/m 0,0 km/h (0 Bft) SO 135 0 min 0,000 mm 0 W/m 5,4 C 6,8 C 6,4 km/h (2 Bft) 100 %
07.11.2014 22:30 6,8 C 6,7 C 6,8 C 91 % 1012,4 hPa 0,0 l/m 1,6 km/h (1 Bft) SO 135 0 min 0,000 mm 0 W/m 5,4 C 6,8 C 6,4 km/h (2 Bft) 100 %
07.11.2014 22:40 6,8 C 6,8 C 6,8 C 92 % 1012,4 hPa 0,0 l/m 0,0 km/h (0 Bft) SO 135 0 min 0,000 mm 0 W/m 5,6 C 6,8 C 4,8 km/h (1 Bft) 100 %
07.11.2014 22:50 6,7 C 6,7 C 6,8 C 92 % 1012,3 hPa 0,0 l/m 1,6 km/h (1 Bft) SO 135 0 min 0,000 mm 0 W/m 5,5 C 6,7 C 4,8 km/h (1 Bft) 100 %
07.11.2014 23:00 6,7 C 6,7 C 6,7 C 92 % 1012,5 hPa 0,0 l/m 0,0 km/h (0 Bft) SO 135 0 min 0,000 mm 0 W/m 5,5 C 6,7 C 3,2 km/h (1 Bft) 100 %
07.11.2014 23:10 6,6 C 6,6 C 6,7 C 91 % 1012,6 hPa 0,0 l/m 3,2 km/h (1 Bft) SO 135 0 min 0,000 mm 0 W/m 5,2 C 6,6 C 6,4 km/h (2 Bft) 100 %
07.11.2014 23:20 6,7 C 6,6 C 6,7 C 91 % 1012,3 hPa 0,0 l/m 3,2 km/h (1 Bft) SO 135 0 min 0,000 mm 0 W/m 5,3 C 6,7 C 4,8 km/h (1 Bft) 90 %
07.11.2014 23:30 6,8 C 6,7 C 6,8 C 92 % 1012,3 hPa 0,0 l/m 0,0 km/h (0 Bft) SO 135 0 min 0,000 mm 0 W/m 5,6 C 6,8 C 1,6 km/h (1 Bft) 100 %
07.11.2014 23:40 6,8 C 6,8 C 6,8 C 92 % 1012,5 hPa 0,0 l/m 1,6 km/h (1 Bft) SO 135 0 min 0,000 mm 0 W/m 5,6 C 6,8 C 6,4 km/h (2 Bft) 100 %
07.11.2014 23:50 6,9 C 6,8 C 6,9 C 92 % 1012,5 hPa 0,0 l/m 1,6 km/h (1 Bft) SO 135 0 min 0,000 mm 0 W/m 5,7 C 6,9 C 6,4 km/h (2 Bft) 100 %
_ Min-Zeit 03:50 03:50 03:20 15:20 14:40 - 00:10 - - - - - 03:10 03:10 00:30 00:10
Minimum _ -0,3 C -0,3 C -0,2 C 83 % 1008,0 hPa - 0,0 km/h (0 Bft) - - - - - -1,5 C -0,2 C 0,0 km/h (0 Bft) 87 %
_ Max-Zeit 15:20 15:30 15:20 09:50 01:20 00:00 12:40 - - 09:10 14:00 12:50 13:50 15:20 12:30 08:10
Maximum _ 8,6 C 8,4 C 8,6 C 92 % 1013,0 hPa 0,0 l/m 6,4 km/h
S-SW (2 Bft)
- - 10 min 0,102 mm 425 W/m 6,3 C 8,6 C 14,5 km/h
S-SW (3 Bft)
100 %
Durchschnitt _ 4,1 C 4,0 C 4,2 C 90 % 1010,6 hPa #0,0 l/m 0,8 km/h (0 Bft) S-SW - #2:40 h #0,406 mm 135 W/m 2,7 C 4,1 C 3,9 km/h (1 Bft) 98 %
PRIVATE WETTERSTATION BILLIGHEIM-ALLFELD - www.neckar-odenwald-wetter.de - Holger Sonntag